Time;durP1;ratioP1;P1;durP2;ratioP2;P2;SDS_P1;SDS_P2;PMS_P1;PMS_P2;Temp;Humidity;BMP_temperature;BMP_pressure;BME280_temperature;BME280_humidity;BME280_pressure;Samples;Min_cycle;Max_cycle;Signal;HPM_P1;HPM_P2
2022/01/15 00:01:39;;;;;;;4.70;3.33;;;;;;;20.39;27.95;100452.53;5108931;28;20050;-64
2022/01/15 00:04:05;;;;;;;5.05;3.70;;;;;;;20.37;27.75;100455.66;5108864;28;20043;-63
2022/01/15 00:06:30;;;;;;;4.45;3.55;;;;;;;20.38;27.81;100450.91;5108883;28;20043;-64
2022/01/15 00:08:56;;;;;;;5.32;3.72;;;;;;;20.38;27.73;100451.72;5108613;28;20474;-63
2022/01/15 00:11:21;;;;;;;5.30;3.47;;;;;;;20.37;27.85;100447.34;5108825;28;20586;-63
2022/01/15 00:13:54;;;;;;;4.82;3.75;;;;;;;20.35;27.80;100444.06;5108891;28;20044;-63
2022/01/15 00:19:09;;;;;;;4.80;3.70;;;;;;;20.38;27.76;100450.91;5108491;28;20359;-64
2022/01/15 00:21:35;;;;;;;6.13;3.80;;;;;;;20.38;27.70;100453.69;5108100;28;20146;-64
2022/01/15 00:24:01;;;;;;;6.00;4.07;;;;;;;20.36;27.79;100448.50;5107739;28;20193;-57
2022/01/15 00:26:27;;;;;;;5.65;4.07;;;;;;;20.34;27.74;100442.44;5108614;28;20036;-63
2022/01/15 00:28:52;;;;;;;5.18;3.85;;;;;;;20.34;27.62;100440.47;5108587;28;20044;-57
2022/01/15 00:31:18;;;;;;;4.95;3.55;;;;;;;20.32;27.79;100442.81;5108001;28;20092;-57
2022/01/15 00:33:43;;;;;;;6.07;4.40;;;;;;;20.34;27.81;100448.81;5108479;28;20055;-57
2022/01/15 00:36:09;;;;;;;5.20;3.85;;;;;;;20.33;27.74;100438.88;5108385;28;20497;-64
2022/01/15 00:38:34;;;;;;;5.22;3.90;;;;;;;20.32;27.86;100434.47;5108409;28;20042;-63
2022/01/15 00:41:00;;;;;;;6.13;4.38;;;;;;;20.33;27.61;100436.09;5108212;28;20048;-63
2022/01/15 00:43:25;;;;;;;5.68;4.20;;;;;;;20.31;27.62;100427.28;5108188;28;20048;-63
2022/01/15 00:45:52;;;;;;;5.22;4.00;;;;;;;20.33;27.61;100441.66;5108336;28;20427;-64
2022/01/15 00:48:17;;;;;;;5.05;3.55;;;;;;;20.33;27.55;100436.09;5108250;28;20390;-64
2022/01/15 00:50:42;;;;;;;5.88;3.92;;;;;;;20.42;27.68;100440.72;5108322;28;20040;-63
2022/01/15 00:53:08;;;;;;;6.03;4.50;;;;;;;21.05;26.78;100439.16;5108382;28;20051;-64
2022/01/15 00:55:34;;;;;;;5.90;4.45;;;;;;;22.05;25.68;100435.63;5108097;28;20054;-64
2022/01/15 00:57:59;;;;;;;6.18;4.35;;;;;;;22.78;24.79;100435.03;5108190;28;20047;-63
2022/01/15 01:00:26;;;;;;;5.72;4.03;;;;;;;22.60;25.08;100429.06;5108150;28;20456;-63
2022/01/15 01:02:53;;;;;;;5.63;4.20;;;;;;;22.32;25.33;100426.41;5108093;28;20055;-64
2022/01/15 01:05:20;;;;;;;5.63;3.92;;;;;;;22.04;25.57;100422.84;5108131;28;20048;-64
2022/01/15 01:07:46;;;;;;;4.50;3.65;;;;;;;21.82;25.55;100418.72;5107996;28;20564;-64
2022/01/15 01:11:10;;;;;;;5.20;3.75;;;;;;;21.63;25.99;100424.94;5107779;28;20035;-63
2022/01/15 01:23:39;;;;;;;5.82;4.45;;;;;;;21.00;26.63;100416.34;5107737;28;20054;-64
2022/01/15 01:26:10;;;;;;;5.45;4.05;;;;;;;20.94;26.73;100420.56;5107972;28;20039;-57
2022/01/15 01:28:44;;;;;;;6.10;4.20;;;;;;;20.86;26.87;100409.22;5108037;28;20051;-57
2022/01/15 01:31:23;;;;;;;5.57;4.03;;;;;;;20.81;26.85;100415.00;5108136;28;20069;-57
2022/01/15 01:33:53;;;;;;;6.95;4.10;;;;;;;20.77;26.97;100411.28;5108006;28;20497;-57
2022/01/15 01:36:37;;;;;;;5.30;3.97;;;;;;;20.74;26.87;100414.00;5111487;28;20054;-57
2022/01/15 01:39:09;;;;;;;6.75;3.85;;;;;;;20.69;27.08;100409.47;5111244;28;20039;-57
2022/01/15 01:41:37;;;;;;;5.50;4.05;;;;;;;20.66;27.07;100407.41;5111008;28;20515;-57
2022/01/15 01:44:04;;;;;;;5.85;4.05;;;;;;;20.64;27.05;100412.47;5111303;28;20044;-57
2022/01/15 01:46:45;;;;;;;5.05;3.70;;;;;;;20.60;27.14;100408.78;5111126;28;20423;-57
2022/01/15 01:49:13;;;;;;;4.63;3.58;;;;;;;20.58;26.98;100408.34;5111194;28;20039;-56
2022/01/15 01:51:42;;;;;;;5.28;4.10;;;;;;;20.55;27.08;100403.47;5111286;28;20169;-56
2022/01/15 01:54:17;;;;;;;5.47;4.00;;;;;;;20.75;26.86;100402.50;5110656;28;20043;-57
2022/01/15 01:56:43;;;;;;;5.45;3.92;;;;;;;21.47;25.83;100393.50;5111104;28;20063;-57
2022/01/15 01:59:08;;;;;;;4.88;3.60;;;;;;;22.34;25.24;100395.38;5110936;28;20514;-57
2022/01/15 02:01:34;;;;;;;5.68;4.10;;;;;;;23.15;24.21;100388.09;5110784;28;20047;-57
2022/01/15 02:04:01;;;;;;;4.72;3.60;;;;;;;23.00;24.45;100386.13;5110849;28;20036;-57
2022/01/15 02:06:26;;;;;;;4.15;3.25;;;;;;;22.68;24.96;100388.22;5110716;28;20048;-56
2022/01/15 02:08:54;;;;;;;4.60;3.28;;;;;;;22.38;24.99;100382.34;5110728;28;20044;-57
2022/01/15 02:11:20;;;;;;;4.47;3.25;;;;;;;22.13;25.36;100387.28;5110515;28;20044;-58
2022/01/15 02:13:46;;;;;;;5.28;3.85;;;;;;;21.90;25.44;100373.16;5110717;28;20407;-57
2022/01/15 02:16:13;;;;;;;4.45;3.45;;;;;;;21.70;25.73;100372.25;5110711;28;20495;-57
2022/01/15 02:18:39;;;;;;;4.47;3.40;;;;;;;21.55;26.00;100370.25;5110899;28;20121;-57
2022/01/15 02:23:34;;;;;;;4.72;3.30;;;;;;;21.31;26.49;100363.66;5110577;28;20050;-57
2022/01/15 02:26:03;;;;;;;4.55;3.42;;;;;;;21.22;26.24;100371.31;5110458;28;20051;-57
2022/01/15 02:28:31;;;;;;;4.57;3.13;;;;;;;21.13;26.35;100362.28;5110429;28;20083;-57
2022/01/15 02:31:08;;;;;;;5.30;3.80;;;;;;;21.06;26.64;100356.53;5110581;28;20050;-57
2022/01/15 02:33:34;;;;;;;5.28;3.30;;;;;;;21.01;26.55;100356.81;5109086;28;20484;-57
2022/01/15 02:36:03;;;;;;;5.20;3.38;;;;;;;20.95;26.60;100356.22;5110583;28;20054;-56
2022/01/15 02:38:29;;;;;;;4.18;3.17;;;;;;;20.89;26.92;100350.09;5110229;28;20038;-56
2022/01/15 02:40:54;;;;;;;4.07;3.20;;;;;;;20.84;26.88;100347.56;5110325;28;20055;-57
2022/01/15 02:43:31;;;;;;;4.93;3.80;;;;;;;20.81;26.76;100350.25;5110234;28;20435;-56
2022/01/15 02:45:58;;;;;;;4.80;3.10;;;;;;;20.77;26.80;100352.91;5109334;28;20046;-57
2022/01/15 02:48:26;;;;;;;4.88;3.55;;;;;;;20.71;27.01;100345.16;5110145;28;20048;-57
2022/01/15 02:50:52;;;;;;;4.38;3.13;;;;;;;20.72;26.88;100344.03;5110252;28;20054;-57
2022/01/15 02:53:18;;;;;;;4.30;3.10;;;;;;;20.69;26.88;100341.94;5109947;28;20495;-57
2022/01/15 02:55:45;;;;;;;4.28;3.28;;;;;;;20.66;27.02;100346.25;5109905;28;20047;-57
2022/01/15 02:58:11;;;;;;;4.32;3.22;;;;;;;20.65;26.94;100341.03;5110002;28;20047;-58
2022/01/15 03:00:37;;;;;;;4.20;3.15;;;;;;;20.62;27.11;100331.41;5110069;28;20044;-56
2022/01/15 03:03:03;;;;;;;4.72;3.28;;;;;;;20.60;27.11;100336.53;5109922;28;20044;-57
2022/01/15 03:05:28;;;;;;;4.30;3.13;;;;;;;20.59;27.06;100337.69;5109794;28;20036;-63
2022/01/15 03:07:54;;;;;;;4.10;3.03;;;;;;;20.58;27.12;100333.28;5109733;28;20048;-63
2022/01/15 03:10:19;;;;;;;4.35;3.10;;;;;;;20.57;26.98;100337.19;5109869;28;20047;-63
2022/01/15 03:12:45;;;;;;;4.35;3.17;;;;;;;20.55;27.04;100325.63;5109629;28;20127;-63
2022/01/15 03:15:17;;;;;;;4.13;3.03;;;;;;;20.53;27.07;100323.22;5109897;28;20067;-63
2022/01/15 03:17:42;;;;;;;4.00;2.97;;;;;;;20.53;27.15;100322.41;5109821;28;20422;-57
2022/01/15 03:20:08;;;;;;;4.53;2.92;;;;;;;20.52;26.98;100318.81;5109897;28;20556;-57
2022/01/15 03:22:33;;;;;;;4.25;2.92;;;;;;;20.49;26.91;100310.34;5109372;28;20051;-58
2022/01/15 03:24:59;;;;;;;5.15;3.42;;;;;;;20.47;27.21;100307.94;5109623;28;20047;-58
2022/01/15 03:27:24;;;;;;;4.40;3.00;;;;;;;20.49;27.01;100313.13;5109621;28;20082;-56
2022/01/15 03:29:51;;;;;;;3.90;2.88;;;;;;;20.47;27.03;100304.34;5109677;28;20048;-56
2022/01/15 03:32:17;;;;;;;4.60;3.30;;;;;;;20.44;27.02;100299.47;5109502;28;20415;-56
2022/01/15 03:34:43;;;;;;;4.18;2.92;;;;;;;20.45;26.98;100299.16;5109329;28;20036;-56
2022/01/15 03:37:08;;;;;;;4.28;3.05;;;;;;;20.44;27.14;100291.97;5109432;28;20086;-56
2022/01/15 03:39:35;;;;;;;4.50;3.40;;;;;;;20.44;27.01;100296.69;5109264;28;20075;-63
2022/01/15 03:42:01;;;;;;;4.97;3.45;;;;;;;20.42;27.23;100297.03;5109140;28;20062;-62
2022/01/15 03:44:26;;;;;;;4.80;3.38;;;;;;;20.42;26.80;100293.44;5109273;28;20047;-63
2022/01/15 03:46:52;;;;;;;4.47;3.33;;;;;;;20.42;27.03;100291.47;5109190;28;20048;-63
2022/01/15 03:49:17;;;;;;;4.55;3.35;;;;;;;20.42;27.22;100290.66;5109194;28;20055;-63
2022/01/15 03:51:42;;;;;;;5.18;3.17;;;;;;;20.42;27.17;100287.88;5109306;28;20056;-63
2022/01/15 03:54:08;;;;;;;4.78;3.42;;;;;;;20.40;27.15;100282.69;5109007;28;20043;-63
2022/01/15 03:56:33;;;;;;;4.50;3.30;;;;;;;20.40;27.17;100284.66;5100737;28;20139;-64
2022/01/15 03:58:59;;;;;;;4.93;3.30;;;;;;;20.48;27.21;100280.94;5108733;28;20062;-64
2022/01/15 04:01:24;;;;;;;4.70;3.50;;;;;;;21.06;26.09;100279.44;5108750;28;20062;-64
2022/01/15 04:03:49;;;;;;;5.18;3.53;;;;;;;21.92;25.25;100264.97;5109003;28;20109;-57
2022/01/15 04:06:15;;;;;;;4.60;3.22;;;;;;;22.63;24.93;100269.38;5108939;28;20058;-57
2022/01/15 04:08:40;;;;;;;3.78;2.70;;;;;;;22.42;24.75;100269.72;5108960;28;20071;-58
2022/01/15 04:11:06;;;;;;;3.80;2.72;;;;;;;22.16;25.19;100267.56;5108726;28;20035;-59
2022/01/15 04:13:31;;;;;;;4.22;3.20;;;;;;;21.92;25.35;100267.75;5108888;28;20043;-57
2022/01/15 04:15:57;;;;;;;4.50;3.05;;;;;;;21.71;25.63;100263.28;5108834;28;20044;-58
2022/01/15 04:18:23;;;;;;;4.55;3.40;;;;;;;21.55;25.54;100264.47;5108156;28;20097;-56
2022/01/15 04:20:51;;;;;;;4.47;3.25;;;;;;;21.39;25.96;100265.28;5108732;28;20388;-57
2022/01/15 04:23:16;;;;;;;4.20;2.90;;;;;;;21.27;26.06;100265.31;5108424;28;20101;-57
2022/01/15 04:25:41;;;;;;;3.88;2.75;;;;;;;21.17;25.95;100257.50;5108750;28;20043;-56
2022/01/15 04:28:10;;;;;;;4.15;2.85;;;;;;;21.09;26.45;100261.25;5090253;28;20138;-57
2022/01/15 04:30:39;;;;;;;3.92;2.97;;;;;;;21.02;26.24;100261.06;5108454;28;20089;-58
2022/01/15 04:33:05;;;;;;;3.65;2.83;;;;;;;20.94;26.53;100254.50;5108579;28;20063;-58
2022/01/15 04:35:30;;;;;;;4.25;3.00;;;;;;;20.88;26.57;100262.28;5108551;28;20177;-58
2022/01/15 04:38:03;;;;;;;4.05;2.95;;;;;;;20.84;26.67;100263.34;5108528;28;20042;-57
2022/01/15 04:40:28;;;;;;;3.67;2.75;;;;;;;20.78;26.61;100268.34;5108543;28;20043;-57
2022/01/15 04:42:54;;;;;;;4.30;2.85;;;;;;;20.74;26.50;100264.66;5108285;28;20056;-58
2022/01/15 04:45:19;;;;;;;4.22;3.10;;;;;;;20.71;26.75;100262.56;5108266;28;20052;-58
2022/01/15 04:47:44;;;;;;;3.58;2.70;;;;;;;20.69;26.59;100264.09;5108439;28;20526;-58
2022/01/15 04:50:13;;;;;;;3.80;2.63;;;;;;;20.66;26.69;100264.81;5108305;28;20039;-58
2022/01/15 04:52:39;;;;;;;3.33;2.38;;;;;;;20.63;26.81;100274.66;5108323;28;20047;-57
2022/01/15 04:55:06;;;;;;;3.55;2.50;;;;;;;20.60;26.82;100270.63;5108410;28;20046;-58
2022/01/15 04:57:32;;;;;;;4.10;3.00;;;;;;;20.59;26.87;100273.75;5106764;28;20100;-57
2022/01/15 04:59:58;;;;;;;4.22;3.25;;;;;;;20.56;26.87;100268.88;5108297;28;20044;-57
2022/01/15 05:02:24;;;;;;;4.10;2.95;;;;;;;20.54;26.72;100269.25;5108133;28;20104;-57
2022/01/15 05:04:49;;;;;;;4.18;2.90;;;;;;;20.53;26.89;100267.63;5108315;28;20040;-59
2022/01/15 05:07:14;;;;;;;3.30;2.40;;;;;;;20.51;26.76;100269.97;5108220;28;20427;-63
2022/01/15 05:09:40;;;;;;;3.67;2.55;;;;;;;20.49;26.79;100268.69;5110256;28;20046;-57
2022/01/15 05:12:10;;;;;;;4.82;3.10;;;;;;;20.48;26.82;100267.88;5111718;28;20459;-57
2022/01/15 05:14:36;;;;;;;3.85;2.97;;;;;;;20.48;27.01;100264.28;5111832;28;20130;-57
2022/01/15 05:17:02;;;;;;;3.72;2.78;;;;;;;20.43;26.98;100262.53;5111654;28;20127;-57
2022/01/15 05:19:28;;;;;;;3.95;2.90;;;;;;;20.44;26.93;100271.69;5111658;28;20048;-58
2022/01/15 05:21:58;;;;;;;3.88;2.70;;;;;;;20.43;26.79;100262.53;5111714;28;20136;-58
2022/01/15 05:24:29;;;;;;;4.38;3.00;;;;;;;20.43;26.76;100261.72;5111793;28;20077;-56
2022/01/15 05:26:54;;;;;;;4.65;3.38;;;;;;;20.40;26.88;100262.41;5111554;28;20051;-56
2022/01/15 05:29:20;;;;;;;3.72;2.80;;;;;;;20.41;26.89;100275.16;5110953;28;20132;-56
2022/01/15 05:31:45;;;;;;;3.75;2.80;;;;;;;20.39;26.96;100266.38;5111039;28;20460;-56
2022/01/15 05:34:11;;;;;;;3.70;2.90;;;;;;;20.40;26.94;100259.66;5109081;28;20507;-57
2022/01/15 05:36:39;;;;;;;4.13;2.85;;;;;;;20.35;27.04;100255.13;5111167;28;20043;-57
2022/01/15 05:39:05;;;;;;;4.45;3.25;;;;;;;20.38;26.91;100261.97;5111228;28;20483;-57
2022/01/15 05:41:30;;;;;;;4.63;3.10;;;;;;;20.36;26.89;100259.56;5111022;28;20392;-57
2022/01/15 05:44:00;;;;;;;3.92;2.85;;;;;;;20.36;26.84;100256.78;5110830;28;20051;-57
2022/01/15 05:46:27;;;;;;;3.67;2.67;;;;;;;20.35;26.89;100255.94;5111196;28;20054;-57
2022/01/15 05:48:52;;;;;;;4.40;3.25;;;;;;;20.34;26.94;100262.66;5110951;28;20042;-57
2022/01/15 05:51:17;;;;;;;4.18;3.00;;;;;;;20.35;26.90;100264.28;5110399;28;20051;-57
2022/01/15 05:53:43;;;;;;;4.32;3.03;;;;;;;20.34;26.86;100248.75;5110435;28;20406;-57
2022/01/15 05:56:08;;;;;;;4.20;3.15;;;;;;;20.33;27.07;100254.69;5106711;28;20084;-57
2022/01/15 05:58:34;;;;;;;4.13;3.00;;;;;;;20.34;26.83;100253.50;5111048;28;20122;-57
2022/01/15 06:00:59;;;;;;;4.43;3.03;;;;;;;20.33;26.88;100252.72;5110743;28;20070;-57
2022/01/15 06:03:24;;;;;;;4.05;3.08;;;;;;;20.32;26.93;100253.06;5110794;28;20069;-57
2022/01/15 06:05:50;;;;;;;3.97;2.67;;;;;;;20.33;27.07;100257.47;5110906;28;20047;-57
2022/01/15 06:08:15;;;;;;;4.10;3.00;;;;;;;20.31;27.09;100252.25;5110641;28;20047;-56
2022/01/15 06:10:41;;;;;;;4.07;2.95;;;;;;;20.31;26.89;100255.03;5110842;28;20044;-57
2022/01/15 06:13:06;;;;;;;4.18;3.38;;;;;;;20.31;26.83;100248.66;5110572;28;20126;-56
2022/01/15 06:15:32;;;;;;;4.20;3.00;;;;;;;20.30;26.90;100247.06;5110584;28;20122;-62
2022/01/15 06:17:57;;;;;;;3.67;2.58;;;;;;;20.29;26.88;100249.03;5110427;28;20067;-63
2022/01/15 06:20:23;;;;;;;4.28;2.88;;;;;;;20.30;26.91;100258.97;5090783;28;20047;-57
2022/01/15 06:22:48;;;;;;;4.13;2.90;;;;;;;20.30;26.92;100256.19;5109832;28;20541;-56
2022/01/15 06:25:14;;;;;;;3.67;2.75;;;;;;;20.29;27.01;100260.16;5110485;28;20101;-63
2022/01/15 06:27:39;;;;;;;4.40;3.38;;;;;;;20.37;26.90;100263.94;5110847;28;20043;-62
2022/01/15 06:30:05;;;;;;;4.10;2.78;;;;;;;20.86;25.97;100253.50;5111114;28;20414;-62
2022/01/15 06:32:35;;;;;;;4.20;3.22;;;;;;;21.87;25.11;100252.16;5110883;28;20425;-63
2022/01/15 06:35:03;;;;;;;5.03;3.20;;;;;;;22.85;24.02;100253.06;5110780;28;20044;-62
2022/01/15 06:37:28;;;;;;;3.67;2.72;;;;;;;22.77;24.24;100255.72;5110326;28;20472;-63
2022/01/15 06:39:53;;;;;;;4.25;2.92;;;;;;;22.48;24.45;100256.31;5110698;28;20074;-63
2022/01/15 06:42:19;;;;;;;3.75;2.70;;;;;;;22.19;24.64;100257.66;5110366;28;20069;-63
2022/01/15 06:44:44;;;;;;;3.92;2.50;;;;;;;21.92;24.86;100254.63;5110689;28;20066;-63
2022/01/15 06:47:10;;;;;;;3.72;2.70;;;;;;;21.71;25.20;100248.56;5110437;28;20552;-57
2022/01/15 06:49:35;;;;;;;4.57;2.92;;;;;;;21.53;25.46;100250.09;5110731;28;20044;-57
2022/01/15 06:52:01;;;;;;;3.60;2.65;;;;;;;21.37;25.35;100245.34;5110320;28;20048;-57
2022/01/15 06:54:26;;;;;;;4.07;2.90;;;;;;;21.25;25.67;100245.38;5110170;28;20089;-57
2022/01/15 06:56:51;;;;;;;3.90;2.83;;;;;;;21.13;25.77;100243.47;5110088;28;20044;-57
2022/01/15 06:59:17;;;;;;;4.05;3.17;;;;;;;21.04;25.68;100242.84;5110022;28;20596;-57
2022/01/15 07:01:42;;;;;;;4.07;3.15;;;;;;;20.97;26.09;100253.78;5110032;28;20388;-57
2022/01/15 07:04:08;;;;;;;4.90;3.30;;;;;;;20.91;26.00;100248.81;5109947;28;20043;-57
2022/01/15 07:06:33;;;;;;;4.63;3.08;;;;;;;20.83;26.00;100242.25;5109722;28;20135;-57
2022/01/15 07:08:59;;;;;;;4.25;3.15;;;;;;;20.78;26.06;100243.31;5109783;28;20040;-57
2022/01/15 07:11:24;;;;;;;4.05;2.95;;;;;;;20.74;25.98;100245.19;5109795;28;20138;-57
2022/01/15 07:13:50;;;;;;;4.75;3.40;;;;;;;20.70;26.06;100243.47;5109774;28;20063;-57
2022/01/15 07:16:15;;;;;;;4.60;3.30;;;;;;;20.66;26.19;100248.94;5109378;28;20036;-57
2022/01/15 07:18:40;;;;;;;3.78;2.88;;;;;;;20.63;26.35;100255.19;5109730;28;20039;-57
2022/01/15 07:21:06;;;;;;;4.38;3.25;;;;;;;20.61;26.15;100252.78;5109539;28;20050;-57
2022/01/15 07:23:31;;;;;;;4.03;3.03;;;;;;;20.57;26.23;100254.66;5109716;28;20568;-57
2022/01/15 07:25:57;;;;;;;4.95;3.20;;;;;;;20.56;26.25;100252.22;5110138;28;20510;-57
2022/01/15 07:28:24;;;;;;;4.30;3.35;;;;;;;20.53;26.34;100255.69;5109873;28;20052;-57
2022/01/15 07:30:49;;;;;;;4.15;3.30;;;;;;;20.51;26.42;100263.59;5109429;28;20047;-57
2022/01/15 07:33:15;;;;;;;3.42;2.85;;;;;;;20.49;26.25;100254.78;5108928;28;20052;-57
2022/01/15 07:35:43;;;;;;;4.85;3.45;;;;;;;20.46;26.37;100255.50;5109469;28;20050;-57
2022/01/15 07:38:13;;;;;;;5.03;3.50;;;;;;;20.43;26.42;100256.16;5109511;28;20127;-57
2022/01/15 07:40:40;;;;;;;4.05;3.08;;;;;;;20.43;26.41;100259.75;5109468;28;20522;-63
2022/01/15 07:43:05;;;;;;;4.78;3.38;;;;;;;20.42;26.28;100263.69;5109395;28;20056;-63
2022/01/15 07:45:31;;;;;;;4.63;3.22;;;;;;;20.40;26.30;100262.41;5109311;28;20047;-63
2022/01/15 07:47:56;;;;;;;4.07;3.28;;;;;;;20.39;26.45;100267.19;5109380;28;20040;-63
2022/01/15 07:50:25;;;;;;;4.22;3.20;;;;;;;20.39;26.49;100260.81;5109215;28;20044;-62
2022/01/15 07:52:55;;;;;;;5.28;3.78;;;;;;;20.38;26.50;100267.53;5108367;28;20127;-63
2022/01/15 07:55:22;;;;;;;4.07;3.28;;;;;;;20.37;26.51;100268.69;5109207;28;20079;-57
2022/01/15 07:57:48;;;;;;;4.78;3.47;;;;;;;20.36;26.40;100267.88;5109321;28;20048;-63
2022/01/15 08:00:15;;;;;;;4.38;3.15;;;;;;;20.34;26.51;100276.56;5109508;28;20055;-63
2022/01/15 08:02:41;;;;;;;5.03;3.45;;;;;;;20.32;26.52;100267.75;5109024;28;20075;-63
2022/01/15 08:05:07;;;;;;;4.80;3.70;;;;;;;20.35;26.55;100277.34;5108877;28;20040;-63
2022/01/15 08:07:33;;;;;;;5.13;3.60;;;;;;;20.32;26.42;100261.41;5108439;28;20046;-62
2022/01/15 08:09:58;;;;;;;5.47;3.53;;;;;;;20.33;26.40;100268.56;5108949;28;20036;-63
2022/01/15 08:12:24;;;;;;;5.25;3.83;;;;;;;20.32;26.49;100269.75;5108578;28;20404;-63
2022/01/15 08:14:50;;;;;;;4.93;3.90;;;;;;;20.31;26.60;100268.94;5108777;28;20044;-63
2022/01/15 08:17:16;;;;;;;4.70;3.60;;;;;;;20.32;26.51;100270.53;5108797;28;20081;-62
2022/01/15 08:19:41;;;;;;;4.70;3.35;;;;;;;20.31;26.39;100270.91;5108762;28;20127;-63
2022/01/15 08:22:07;;;;;;;4.88;3.63;;;;;;;20.31;26.49;100263.38;5108204;28;20472;-63
2022/01/15 08:24:32;;;;;;;4.88;3.65;;;;;;;20.31;26.46;100268.13;5109017;28;20117;-62
2022/01/15 08:26:58;;;;;;;5.18;3.75;;;;;;;20.30;26.57;100272.06;5108868;28;20085;-63
2022/01/15 08:29:23;;;;;;;4.38;3.60;;;;;;;20.30;26.61;100260.94;5108756;28;20059;-63
2022/01/15 08:31:49;;;;;;;5.47;3.67;;;;;;;20.29;26.48;100268.47;5108629;28;20471;-64
2022/01/15 08:34:14;;;;;;;4.63;3.35;;;;;;;20.30;26.59;100272.88;5108696;28;20084;-57
2022/01/15 08:36:40;;;;;;;5.13;4.00;;;;;;;20.28;26.60;100269.63;5108683;28;20134;-57
2022/01/15 08:39:07;;;;;;;4.57;3.53;;;;;;;20.29;26.62;100276.81;5108718;28;20104;-57
2022/01/15 08:41:33;;;;;;;5.35;3.88;;;;;;;20.29;26.67;100273.22;5108600;28;20047;-57
2022/01/15 08:43:59;;;;;;;4.93;3.70;;;;;;;20.30;26.56;100272.06;5109594;28;20065;-58
2022/01/15 08:46:24;;;;;;;5.80;4.03;;;;;;;20.30;26.51;100269.28;5112307;28;20071;-57
2022/01/15 08:48:50;;;;;;;5.25;3.83;;;;;;;20.29;26.65;100273.22;5112531;28;20055;-57
2022/01/15 08:51:15;;;;;;;5.68;4.10;;;;;;;20.28;26.67;100266.84;5112309;28;20043;-63
2022/01/15 08:53:41;;;;;;;5.18;3.63;;;;;;;20.28;26.63;100266.03;5112210;28;20036;-63
2022/01/15 08:56:06;;;;;;;4.85;3.90;;;;;;;20.29;26.66;100270.44;5112124;28;20047;-63
2022/01/15 08:58:32;;;;;;;5.00;3.72;;;;;;;20.29;26.58;100267.69;5112306;28;20074;-63
2022/01/15 09:00:57;;;;;;;6.35;4.00;;;;;;;20.28;26.66;100275.16;5112231;28;20104;-57
2022/01/15 09:03:24;;;;;;;5.28;3.70;;;;;;;20.28;26.59;100272.38;5112352;28;20048;-57
2022/01/15 09:05:50;;;;;;;5.20;3.78;;;;;;;20.28;26.58;100271.59;5112330;28;20088;-57
2022/01/15 09:08:17;;;;;;;5.20;3.80;;;;;;;20.28;26.68;100269.63;5112208;28;20078;-57
2022/01/15 09:10:43;;;;;;;5.20;3.50;;;;;;;20.27;26.62;100262.44;5112246;28;20507;-57
2022/01/15 09:13:09;;;;;;;5.28;3.75;;;;;;;20.27;26.71;100265.22;5112122;28;20407;-57
2022/01/15 09:15:35;;;;;;;4.78;3.38;;;;;;;20.27;26.67;100265.22;5112082;28;20048;-57
2022/01/15 09:18:00;;;;;;;5.35;3.60;;;;;;;20.28;26.76;100266.03;5112104;28;20050;-57
2022/01/15 09:20:27;;;;;;;4.72;3.70;;;;;;;20.28;26.58;100264.06;5111965;28;20551;-57
2022/01/15 09:22:52;;;;;;;5.25;3.90;;;;;;;20.28;26.60;100264.06;5111918;28;20075;-57
2022/01/15 09:25:18;;;;;;;5.13;3.95;;;;;;;20.24;26.70;100249.25;5111820;28;20411;-57
2022/01/15 09:30:28;;;;;;;5.20;3.97;;;;;;;20.28;26.56;100266.03;5111869;28;20200;-57
2022/01/15 09:32:55;;;;;;;5.22;4.07;;;;;;;20.26;26.67;100262.81;5111970;28;20134;-57
2022/01/15 09:35:23;;;;;;;5.40;3.92;;;;;;;20.28;26.68;100261.28;5111592;28;20047;-57
2022/01/15 09:37:51;;;;;;;5.28;3.90;;;;;;;20.29;26.83;100262.94;5111627;28;20519;-57
2022/01/15 09:40:19;;;;;;;5.78;4.32;;;;;;;20.28;26.85;100266.84;5111565;28;20134;-57
2022/01/15 09:42:47;;;;;;;6.75;4.32;;;;;;;20.29;26.79;100256.56;5111621;28;20054;-57
2022/01/15 09:45:13;;;;;;;5.35;3.85;;;;;;;20.28;26.87;100252.94;5111583;28;20044;-57
2022/01/15 09:47:39;;;;;;;4.65;3.67;;;;;;;20.29;26.83;100259.34;5111421;28;20456;-62
2022/01/15 09:50:08;;;;;;;6.25;4.40;;;;;;;20.29;26.79;100254.59;5111529;28;20062;-63
2022/01/15 09:52:34;;;;;;;5.60;3.83;;;;;;;20.29;26.80;100251.81;5111577;28;20050;-63
2022/01/15 09:55:00;;;;;;;5.45;4.15;;;;;;;20.28;26.87;100244.59;5111332;28;20044;-63
2022/01/15 09:57:26;;;;;;;6.07;4.10;;;;;;;20.31;26.81;100249.47;5111569;28;20407;-63
2022/01/15 09:59:51;;;;;;;5.72;4.25;;;;;;;20.31;26.75;100249.47;5111093;28;20039;-62
2022/01/15 10:02:17;;;;;;;4.68;3.97;;;;;;;20.31;26.91;100238.38;5111189;28;20050;-64
2022/01/15 10:04:43;;;;;;;4.35;3.75;;;;;;;20.32;26.82;100242.75;5111428;28;20044;-57
2022/01/15 10:07:10;;;;;;;5.32;3.70;;;;;;;20.31;26.95;100238.38;5111222;28;20078;-57
2022/01/15 10:09:37;;;;;;;6.22;4.03;;;;;;;20.33;26.97;100238.00;5111020;28;20453;-57
2022/01/15 10:12:03;;;;;;;5.15;4.10;;;;;;;20.32;26.85;100237.19;5111228;28;20075;-57
2022/01/15 10:14:42;;;;;;;5.97;4.30;;;;;;;20.30;27.00;100235.94;5111084;28;20036;-57
2022/01/15 10:17:23;;;;;;;5.65;4.30;;;;;;;20.33;26.98;100240.78;5110987;28;20031;-57
2022/01/15 10:19:49;;;;;;;5.88;4.28;;;;;;;20.33;27.10;100238.00;5110957;28;20048;-63
2022/01/15 10:22:20;;;;;;;5.03;4.20;;;;;;;20.32;26.92;100231.66;5110935;28;20047;-62
2022/01/15 10:24:56;;;;;;;4.93;3.83;;;;;;;20.32;27.06;100223.31;5110915;28;20044;-62
2022/01/15 10:27:23;;;;;;;6.40;4.22;;;;;;;20.33;26.96;100219.38;5110977;28;20039;-63
2022/01/15 10:29:58;;;;;;;4.95;3.78;;;;;;;20.33;27.02;100222.16;5111042;28;20040;-62
2022/01/15 10:32:27;;;;;;;4.85;3.63;;;;;;;20.34;27.26;100225.72;5110840;28;20051;-63
2022/01/15 10:34:53;;;;;;;5.60;4.38;;;;;;;20.34;27.26;100220.97;5110631;28;20035;-63
2022/01/15 10:37:21;;;;;;;5.47;3.90;;;;;;;20.34;27.21;100215.44;5110599;28;20050;-62
2022/01/15 10:40:08;;;;;;;5.43;3.90;;;;;;;20.34;27.16;100207.09;5110803;28;20043;-57
2022/01/15 10:42:34;;;;;;;5.13;3.90;;;;;;;20.37;27.18;100215.91;5110480;28;20770;-57
2022/01/15 10:45:10;;;;;;;5.20;4.00;;;;;;;20.34;27.31;100207.09;5108974;28;20044;-57
2022/01/15 10:47:48;;;;;;;5.05;3.72;;;;;;;20.36;27.09;100209.53;5110906;28;20047;-57
2022/01/15 10:50:22;;;;;;;5.53;4.10;;;;;;;20.37;27.24;100204.78;5110641;28;20089;-63
2022/01/15 10:52:48;;;;;;;5.82;3.72;;;;;;;20.38;27.32;100196.09;5110639;28;20046;-62
2022/01/15 10:55:16;;;;;;;4.72;3.60;;;;;;;20.38;27.31;100193.31;5110207;28;20054;-63
2022/01/15 10:57:57;;;;;;;5.35;3.80;;;;;;;20.39;27.18;100180.22;5103862;28;20118;-63
2022/01/15 11:00:26;;;;;;;5.03;3.85;;;;;;;20.40;27.35;100187.41;5110790;28;20056;-63
2022/01/15 11:03:00;;;;;;;5.32;4.00;;;;;;;20.40;27.38;100188.22;5110333;28;20523;-63
2022/01/15 11:05:33;;;;;;;4.97;4.10;;;;;;;20.41;27.30;100186.22;5094834;28;20044;-63
2022/01/15 11:08:06;;;;;;;4.60;3.63;;;;;;;20.43;27.54;100175.56;5088775;28;20438;-63
2022/01/15 11:10:50;;;;;;;;;;;;;;;20.48;27.31;100180.91;5090050;28;20048;-62
2022/01/15 11:13:37;;;;;;;4.70;3.78;;;;;;;20.46;27.30;100174.91;5089323;28;19920;-63
2022/01/15 11:16:07;;;;;;;5.32;4.13;;;;;;;20.45;27.33;100173.28;5088732;28;20423;-62
2022/01/15 11:18:35;;;;;;;5.47;4.00;;;;;;;20.44;27.53;100160.53;5089253;28;20052;-63
2022/01/15 11:21:04;;;;;;;5.10;3.60;;;;;;;20.44;27.50;100158.59;5089595;28;20044;-63
2022/01/15 11:23:31;;;;;;;5.05;3.65;;;;;;;20.44;27.53;100157.75;5089531;28;20368;-63
2022/01/15 11:25:59;;;;;;;4.55;3.55;;;;;;;20.46;27.70;100152.69;5088717;28;20036;-63
2022/01/15 11:28:27;;;;;;;4.70;3.72;;;;;;;20.47;27.62;100148.72;5089371;28;20040;-63
2022/01/15 11:30:56;;;;;;;4.55;3.45;;;;;;;20.47;27.63;100138.41;5089232;28;20052;-63
2022/01/15 11:33:27;;;;;;;5.13;3.65;;;;;;;20.48;27.72;100133.66;5089096;28;20769;-62
2022/01/15 11:35:53;;;;;;;4.55;3.58;;;;;;;20.48;27.63;100130.88;5089020;28;20044;-63
2022/01/15 11:38:33;;;;;;;5.05;3.65;;;;;;;20.49;27.85;100132.50;5089178;28;20063;-58
2022/01/15 11:40:59;;;;;;;5.35;3.95;;;;;;;20.48;27.72;100120.56;5089145;28;20059;-57
2022/01/15 11:43:24;;;;;;;4.22;3.35;;;;;;;20.52;27.66;100115.13;5089147;28;20044;-57